createdAt,value
2019-03-15T00:00:43.673Z,0
2019-03-15T00:01:45.799Z,0
2019-03-15T00:02:47.941Z,0
2019-03-15T00:03:49.968Z,0
2019-03-15T00:04:51.980Z,0
2019-03-15T00:05:53.990Z,0
2019-03-15T00:06:56.283Z,0
2019-03-15T00:07:58.297Z,0
2019-03-15T00:09:00.314Z,0
2019-03-15T00:10:02.347Z,0
2019-03-15T00:11:05.395Z,0
2019-03-15T00:12:07.409Z,0
2019-03-15T00:13:09.744Z,0
2019-03-15T00:14:11.806Z,0
2019-03-15T00:15:13.820Z,0
2019-03-15T00:16:15.817Z,0
2019-03-15T00:17:17.819Z,0
2019-03-15T00:18:20.214Z,0
2019-03-15T00:19:22.224Z,0
2019-03-15T00:20:24.224Z,0
2019-03-15T00:21:26.232Z,0
2019-03-15T00:22:28.232Z,0
2019-03-15T00:23:30.344Z,0
2019-03-15T00:24:32.353Z,0
2019-03-15T00:25:34.363Z,0
2019-03-15T00:26:36.672Z,0
2019-03-15T00:27:38.686Z,0
2019-03-15T00:28:40.695Z,0
2019-03-15T00:29:42.709Z,0
2019-03-15T00:30:44.714Z,0
2019-03-15T00:31:46.884Z,0
2019-03-15T00:32:48.890Z,0
2019-03-15T00:33:52.033Z,0
2019-03-15T00:34:54.328Z,0
2019-03-15T00:35:56.718Z,0
2019-03-15T00:36:58.734Z,0
2019-03-15T00:38:00.836Z,0
2019-03-15T00:39:02.998Z,0
2019-03-15T00:40:05.394Z,0
2019-03-15T00:41:07.400Z,0
2019-03-15T00:42:09.666Z,0
2019-03-15T00:43:11.672Z,0
2019-03-15T00:44:13.676Z,0
2019-03-15T00:45:15.684Z,0
2019-03-15T00:46:18.077Z,0
2019-03-15T00:47:20.082Z,0
2019-03-15T00:48:22.103Z,0
2019-03-15T00:49:24.111Z,0
2019-03-15T00:50:26.117Z,0
2019-03-15T00:51:28.115Z,0
2019-03-15T00:52:30.118Z,0
2019-03-15T00:53:32.118Z,0
2019-03-15T00:54:34.248Z,0
2019-03-15T00:55:36.273Z,0
2019-03-15T00:56:38.616Z,0
2019-03-15T00:57:40.622Z,0
2019-03-15T00:58:42.904Z,0
2019-03-15T00:59:44.911Z,0
2019-03-15T01:00:46.913Z,0
2019-03-15T01:01:48.915Z,0
2019-03-15T01:02:51.116Z,0
2019-03-15T01:03:53.114Z,0
2019-03-15T01:04:55.360Z,0
2019-03-15T01:05:57.365Z,0
2019-03-15T01:06:59.924Z,0
2019-03-15T01:08:02.587Z,0
2019-03-15T01:09:04.793Z,0
2019-03-15T01:10:06.797Z,0
2019-03-15T01:11:08.866Z,0
2019-03-15T01:12:11.072Z,0
2019-03-15T01:13:13.071Z,0
2019-03-15T01:14:15.074Z,0
2019-03-15T01:15:17.073Z,0
2019-03-15T01:16:19.084Z,0
2019-03-15T01:17:21.090Z,0
2019-03-15T01:18:23.092Z,0
2019-03-15T01:19:25.104Z,0
2019-03-15T01:20:27.099Z,0
2019-03-15T01:21:29.874Z,0
2019-03-15T01:22:32.157Z,0
2019-03-15T01:23:34.566Z,0
2019-03-15T01:24:36.566Z,0
2019-03-15T01:25:38.565Z,0
2019-03-15T01:26:40.869Z,0
2019-03-15T01:27:43.166Z,0
2019-03-15T01:28:45.167Z,0
2019-03-15T01:29:47.259Z,0
2019-03-15T01:30:49.261Z,0
2019-03-15T01:31:51.276Z,0
2019-03-15T01:32:53.277Z,0
2019-03-15T01:33:55.284Z,0
2019-03-15T01:34:57.566Z,0
2019-03-15T01:35:59.660Z,0
2019-03-15T01:37:01.694Z,0
2019-03-15T01:38:03.704Z,0
2019-03-15T01:39:06.117Z,0
2019-03-15T01:40:08.398Z,0
2019-03-15T01:41:10.396Z,0
2019-03-15T01:42:12.397Z,0
2019-03-15T01:43:14.635Z,0
2019-03-15T01:44:16.640Z,0
2019-03-15T01:45:19.625Z,0
2019-03-15T01:46:21.628Z,0
2019-03-15T01:47:25.385Z,0
2019-03-15T01:48:27.389Z,0
2019-03-15T01:49:29.398Z,0
2019-03-15T01:50:31.403Z,0
2019-03-15T01:51:33.813Z,0
2019-03-15T01:52:35.817Z,0
2019-03-15T01:53:37.822Z,0
2019-03-15T01:54:39.827Z,0
2019-03-15T01:55:41.840Z,0
2019-03-15T01:56:43.848Z,0
2019-03-15T01:57:45.852Z,0
2019-03-15T01:58:47.864Z,0
2019-03-15T01:59:49.972Z,0
2019-03-15T02:00:52.460Z,0
2019-03-15T02:01:54.466Z,0
2019-03-15T02:02:56.468Z,0
2019-03-15T02:03:58.477Z,0
2019-03-15T02:05:00.690Z,0
2019-03-15T02:06:02.987Z,0
2019-03-15T02:07:04.991Z,0
2019-03-15T02:08:06.998Z,0
2019-03-15T02:09:10.653Z,0
2019-03-15T02:10:12.656Z,0
2019-03-15T02:11:14.662Z,0
2019-03-15T02:12:16.668Z,0
2019-03-15T02:13:18.961Z,0
2019-03-15T02:14:20.972Z,0
2019-03-15T02:15:22.972Z,0
2019-03-15T02:16:25.450Z,0
2019-03-15T02:17:28.003Z,0
2019-03-15T02:18:30.352Z,0
2019-03-15T02:19:32.750Z,0
2019-03-15T02:20:34.925Z,0
2019-03-15T02:21:37.212Z,0
2019-03-15T02:22:39.276Z,0
2019-03-15T02:23:41.278Z,0
2019-03-15T02:24:43.568Z,0
2019-03-15T02:25:45.569Z,0
2019-03-15T02:26:48.873Z,0
2019-03-15T02:27:50.892Z,0
2019-03-15T02:28:52.977Z,0
2019-03-15T02:29:55.370Z,0
2019-03-15T02:30:57.415Z,0
2019-03-15T02:31:59.697Z,0
2019-03-15T02:33:01.730Z,0
2019-03-15T02:34:04.735Z,0
2019-03-15T02:35:07.146Z,0
2019-03-15T02:36:09.465Z,0
2019-03-15T02:37:11.761Z,0
2019-03-15T02:38:14.072Z,0
2019-03-15T02:39:16.085Z,0
2019-03-15T02:40:18.385Z,0
2019-03-15T02:41:20.680Z,0
2019-03-15T02:42:22.683Z,0
2019-03-15T02:43:24.688Z,0
2019-03-15T02:44:26.792Z,0
2019-03-15T02:45:29.505Z,0
2019-03-15T02:46:32.079Z,0
2019-03-15T02:47:34.401Z,0
2019-03-15T02:48:36.737Z,0
2019-03-15T02:49:38.738Z,0
2019-03-15T02:50:41.143Z,0
2019-03-15T02:51:43.159Z,0
2019-03-15T02:52:45.186Z,0
2019-03-15T02:53:47.500Z,0
2019-03-15T02:54:50.192Z,0
2019-03-15T02:55:52.197Z,0
2019-03-15T02:56:54.197Z,0
2019-03-15T02:57:56.806Z,0
2019-03-15T02:58:59.220Z,0
2019-03-15T03:00:01.659Z,0
2019-03-15T03:01:04.598Z,0
2019-03-15T03:02:06.831Z,0
2019-03-15T03:03:09.585Z,0
2019-03-15T03:04:11.751Z,0
2019-03-15T03:05:14.207Z,0
2019-03-15T03:06:16.234Z,0
2019-03-15T03:07:18.969Z,0
2019-03-15T03:08:21.059Z,0
2019-03-15T03:09:23.365Z,0
2019-03-15T03:10:25.608Z,0
2019-03-15T03:11:27.950Z,0
2019-03-15T03:12:30.208Z,0
2019-03-15T03:13:32.946Z,0
2019-03-15T03:14:35.201Z,0
2019-03-15T03:15:37.240Z,0
2019-03-15T03:16:39.271Z,0
2019-03-15T03:17:42.156Z,0
2019-03-15T03:18:44.459Z,0
2019-03-15T03:19:47.005Z,0
2019-03-15T03:20:50.056Z,0
2019-03-15T03:21:52.728Z,0
2019-03-15T03:22:55.091Z,0
2019-03-15T03:23:59.017Z,0
2019-03-15T03:25:01.684Z,0
2019-03-15T03:26:04.315Z,0
2019-03-15T03:27:08.349Z,0
2019-03-15T03:28:10.412Z,0
2019-03-15T03:29:12.450Z,0
2019-03-15T03:30:19.116Z,0
2019-03-15T03:31:21.615Z,0
2019-03-15T03:32:24.134Z,0
2019-03-15T03:33:26.810Z,0
2019-03-15T03:34:29.500Z,0
2019-03-15T03:35:32.217Z,0
2019-03-15T03:36:34.296Z,0
2019-03-15T03:37:36.346Z,0
2019-03-15T03:38:40.699Z,0
2019-03-15T03:39:42.739Z,0
2019-03-15T03:40:45.637Z,0
2019-03-15T03:41:47.971Z,0
2019-03-15T03:42:50.304Z,0
2019-03-15T03:43:52.632Z,0
2019-03-15T03:44:54.942Z,0
2019-03-15T03:45:57.036Z,0
2019-03-15T03:46:59.083Z,0
2019-03-15T03:48:01.106Z,0
2019-03-15T03:49:03.574Z,0
2019-03-15T03:50:05.637Z,0
2019-03-15T03:51:09.063Z,0
2019-03-15T03:52:11.087Z,0
2019-03-15T03:53:13.113Z,0
2019-03-15T03:54:15.271Z,0
2019-03-15T03:55:17.292Z,0
2019-03-15T03:56:19.566Z,0
2019-03-15T03:57:21.593Z,0
2019-03-15T03:58:23.779Z,0
2019-03-15T03:59:25.792Z,0
2019-03-15T04:00:27.878Z,0
2019-03-15T04:01:30.183Z,0
2019-03-15T04:02:35.038Z,0
2019-03-15T04:03:37.464Z,0
2019-03-15T04:04:40.126Z,0
2019-03-15T04:05:42.151Z,0
2019-03-15T04:06:44.497Z,0
2019-03-15T04:07:46.825Z,0
2019-03-15T04:08:48.846Z,0
2019-03-15T04:09:50.891Z,0
2019-03-15T04:10:52.985Z,0
2019-03-15T04:11:57.483Z,0
2019-03-15T04:12:59.526Z,0
2019-03-15T04:14:01.568Z,0
2019-03-15T04:15:03.623Z,0
2019-03-15T04:16:05.950Z,0
2019-03-15T04:17:07.993Z,0
2019-03-15T04:18:10.023Z,0
2019-03-15T04:19:12.060Z,0
2019-03-15T04:20:14.084Z,0
2019-03-15T04:21:16.121Z,0
2019-03-15T04:22:18.154Z,0
2019-03-15T04:23:20.216Z,0
2019-03-15T04:24:22.245Z,0
2019-03-15T04:25:24.581Z,0
2019-03-15T04:26:26.896Z,0
2019-03-15T04:27:28.937Z,0
2019-03-15T04:28:30.988Z,0
2019-03-15T04:29:33.002Z,0
2019-03-15T04:30:35.044Z,0
2019-03-15T04:31:37.086Z,0
2019-03-15T04:32:39.133Z,0
2019-03-15T04:33:41.159Z,0
2019-03-15T04:34:43.188Z,0
2019-03-15T04:35:45.226Z,0
2019-03-15T04:36:47.244Z,0
2019-03-15T04:37:49.310Z,0
2019-03-15T04:38:51.864Z,0
2019-03-15T04:39:53.887Z,0
2019-03-15T04:40:56.566Z,0
2019-03-15T04:41:58.598Z,0
2019-03-15T04:43:01.601Z,0
2019-03-15T04:44:03.930Z,0
2019-03-15T04:45:05.973Z,0
2019-03-15T04:46:08.032Z,0
2019-03-15T04:47:10.088Z,0
2019-03-15T04:48:12.272Z,0
2019-03-15T04:49:14.315Z,0
2019-03-15T04:50:16.340Z,0
2019-03-15T04:51:18.376Z,0
2019-03-15T04:52:20.417Z,0
2019-03-15T04:53:22.711Z,0
2019-03-15T04:54:24.753Z,0
2019-03-15T04:55:26.791Z,0
2019-03-15T04:56:28.833Z,0
2019-03-15T04:57:30.850Z,0
2019-03-15T04:58:32.898Z,0
2019-03-15T04:59:34.936Z,0
2019-03-15T05:00:36.972Z,0
2019-03-15T05:01:39.121Z,0
2019-03-15T05:02:41.140Z,0
2019-03-15T05:03:43.317Z,0
2019-03-15T05:04:45.355Z,0
2019-03-15T05:06:01.912Z,0
2019-03-15T05:07:04.806Z,0
2019-03-15T05:08:06.842Z,0
2019-03-15T05:09:08.926Z,0
2019-03-15T05:10:10.943Z,0
2019-03-15T05:11:13.651Z,0
2019-03-15T05:12:15.687Z,0
2019-03-15T05:13:17.788Z,0
2019-03-15T05:14:19.840Z,0
2019-03-15T05:15:22.188Z,0
2019-03-15T05:16:24.596Z,0
2019-03-15T05:17:26.744Z,0
2019-03-15T05:18:29.052Z,0
2019-03-15T05:19:31.648Z,0
2019-03-15T05:20:33.680Z,0
2019-03-15T05:21:36.241Z,0
2019-03-15T05:22:38.304Z,0
2019-03-15T05:23:40.612Z,0
2019-03-15T05:24:42.781Z,0
2019-03-15T05:25:44.830Z,0
2019-03-15T05:26:46.856Z,0
2019-03-15T05:27:48.896Z,0
2019-03-15T05:28:51.209Z,1
2019-03-15T05:29:53.253Z,1
2019-03-15T05:30:55.289Z,1
2019-03-15T05:31:57.323Z,2
2019-03-15T05:32:59.357Z,2
2019-03-15T05:34:01.408Z,2
2019-03-15T05:35:03.736Z,2
2019-03-15T05:36:05.755Z,2
2019-03-15T05:37:07.786Z,3
2019-03-15T05:38:09.805Z,3
2019-03-15T05:39:11.854Z,3
2019-03-15T05:40:13.879Z,3
2019-03-15T05:41:16.191Z,3
2019-03-15T05:42:18.223Z,3
2019-03-15T05:43:20.320Z,3
2019-03-15T05:44:22.358Z,4
2019-03-15T05:45:24.395Z,4
2019-03-15T05:46:26.410Z,4
2019-03-15T05:47:28.469Z,4
2019-03-15T05:48:30.522Z,5
2019-03-15T05:49:32.554Z,5
2019-03-15T05:50:34.589Z,6
2019-03-15T05:51:36.618Z,6
2019-03-15T05:52:38.671Z,6
2019-03-15T05:53:40.705Z,5
2019-03-15T05:54:42.746Z,5
2019-03-15T05:55:44.963Z,5
2019-03-15T05:56:46.995Z,5
2019-03-15T05:57:49.028Z,5
2019-03-15T05:58:51.068Z,5
2019-03-15T05:59:53.493Z,5
2019-03-15T06:00:55.825Z,4
2019-03-15T06:01:57.862Z,5
2019-03-15T06:02:59.942Z,4
2019-03-15T06:04:02.371Z,5
2019-03-15T06:05:04.722Z,4
2019-03-15T06:06:06.759Z,4
2019-03-15T06:07:08.782Z,6
2019-03-15T06:08:11.518Z,6
2019-03-15T06:09:14.104Z,6
2019-03-15T06:10:16.137Z,7
2019-03-15T06:11:18.169Z,6
2019-03-15T06:12:20.310Z,8
2019-03-15T06:13:22.333Z,9
2019-03-15T06:14:24.366Z,10
2019-03-15T06:15:26.408Z,10
2019-03-15T06:16:28.704Z,11
2019-03-15T06:17:30.739Z,8
2019-03-15T06:18:33.543Z,9
2019-03-15T06:19:35.573Z,11
2019-03-15T06:20:37.997Z,14
2019-03-15T06:21:40.072Z,12
2019-03-15T06:22:42.109Z,9
2019-03-15T06:23:44.149Z,8
2019-03-15T06:24:46.178Z,7
2019-03-15T06:25:48.488Z,7
2019-03-15T06:26:51.085Z,7
2019-03-15T06:27:53.128Z,6
2019-03-15T06:28:55.149Z,6
2019-03-15T06:29:57.192Z,6
2019-03-15T06:30:59.229Z,8
2019-03-15T06:32:02.108Z,8
2019-03-15T06:33:04.207Z,11
2019-03-15T06:34:06.237Z,12
2019-03-15T06:35:08.269Z,13
2019-03-15T06:36:10.289Z,18
2019-03-15T06:37:12.342Z,18
2019-03-15T06:38:14.363Z,19
2019-03-15T06:39:16.393Z,17
2019-03-15T06:40:18.999Z,15
2019-03-15T06:41:21.028Z,17
2019-03-15T06:42:23.076Z,18
2019-03-15T06:43:25.107Z,19
2019-03-15T06:44:28.747Z,20
2019-03-15T06:45:33.383Z,24
2019-03-15T06:46:35.527Z,25
2019-03-15T06:47:37.567Z,21
2019-03-15T06:48:39.590Z,19
2019-03-15T06:49:41.924Z,21
2019-03-15T06:50:43.943Z,27
2019-03-15T06:51:45.979Z,26
2019-03-15T06:52:48.020Z,25
2019-03-15T06:53:50.343Z,24
2019-03-15T06:54:52.423Z,18
2019-03-15T06:55:54.455Z,20
2019-03-15T06:56:56.493Z,27
2019-03-15T06:57:58.529Z,27
2019-03-15T06:59:00.905Z,19
2019-03-15T07:00:04.645Z,20
2019-03-15T07:01:06.684Z,20
2019-03-15T07:02:08.729Z,16
2019-03-15T07:03:10.845Z,14
2019-03-15T07:04:12.873Z,21
2019-03-15T07:05:14.913Z,22
2019-03-15T07:06:16.933Z,22
2019-03-15T07:07:19.249Z,22
2019-03-15T07:08:21.286Z,20
2019-03-15T07:09:23.903Z,16
2019-03-15T07:10:25.927Z,15
2019-03-15T07:11:27.969Z,18
2019-03-15T07:12:30.010Z,21
2019-03-15T07:13:32.035Z,19
2019-03-15T07:14:34.069Z,18
2019-03-15T07:15:37.425Z,17
2019-03-15T07:16:39.910Z,18
2019-03-15T07:17:43.058Z,17
2019-03-15T07:18:45.090Z,16
2019-03-15T07:19:47.132Z,17
2019-03-15T07:20:49.458Z,17
2019-03-15T07:21:51.495Z,22
2019-03-15T07:22:53.553Z,14
2019-03-15T07:23:59.163Z,18
2019-03-15T07:25:01.197Z,15
2019-03-15T07:26:03.250Z,21
2019-03-15T07:27:15.105Z,22
2019-03-15T07:28:17.447Z,19
2019-03-15T07:29:20.667Z,15
2019-03-15T07:30:22.984Z,24
2019-03-15T07:31:25.018Z,30
2019-03-15T07:32:27.076Z,30
2019-03-15T07:33:29.495Z,31
2019-03-15T07:34:31.515Z,34
2019-03-15T07:35:34.789Z,31
2019-03-15T07:36:38.697Z,27
2019-03-15T07:37:41.414Z,25
2019-03-15T07:38:43.780Z,24
2019-03-15T07:39:45.801Z,20
2019-03-15T07:40:47.838Z,18
2019-03-15T07:41:50.545Z,24
2019-03-15T07:42:52.685Z,28
2019-03-15T07:43:54.818Z,28
2019-03-15T07:44:56.864Z,30
2019-03-15T07:45:59.290Z,33
2019-03-15T07:47:01.391Z,35
2019-03-15T07:48:03.462Z,35
2019-03-15T07:49:05.482Z,31
2019-03-15T07:50:07.523Z,23
2019-03-15T07:51:09.634Z,23
2019-03-15T07:52:11.697Z,24
2019-03-15T07:53:13.724Z,20
2019-03-15T07:54:15.756Z,23
2019-03-15T07:55:17.784Z,26
2019-03-15T07:56:20.137Z,27
2019-03-15T07:57:22.168Z,30
2019-03-15T07:58:24.499Z,23
2019-03-15T07:59:29.246Z,22
2019-03-15T08:00:31.289Z,25
2019-03-15T08:01:33.385Z,25
2019-03-15T08:02:35.431Z,28
2019-03-15T08:03:37.455Z,30
2019-03-15T08:04:39.506Z,23
2019-03-15T08:05:41.556Z,23
2019-03-15T08:06:43.598Z,26
2019-03-15T08:07:47.471Z,25
2019-03-15T08:08:49.540Z,25
2019-03-15T08:09:52.302Z,24
2019-03-15T08:10:56.305Z,28
2019-03-15T08:11:58.448Z,25
2019-03-15T08:13:00.472Z,29
2019-03-15T08:14:02.523Z,30
2019-03-15T08:15:04.848Z,30
2019-03-15T08:16:06.893Z,27
2019-03-15T08:17:09.210Z,28
2019-03-15T08:18:11.342Z,26
2019-03-15T08:19:13.403Z,27
2019-03-15T08:20:15.747Z,36
2019-03-15T08:21:18.098Z,33
2019-03-15T08:22:20.123Z,40
2019-03-15T08:23:22.176Z,31
2019-03-15T08:24:24.207Z,31
2019-03-15T08:25:26.275Z,29
2019-03-15T08:26:31.537Z,26
2019-03-15T08:27:33.572Z,29
2019-03-15T08:28:35.637Z,26
2019-03-15T08:29:37.670Z,23
2019-03-15T08:30:39.720Z,25
2019-03-15T08:31:41.781Z,25
2019-03-15T08:32:45.690Z,26
2019-03-15T08:33:48.005Z,23
2019-03-15T08:34:50.322Z,32
2019-03-15T08:35:52.368Z,29
2019-03-15T08:36:54.395Z,27
2019-03-15T08:37:56.431Z,32
2019-03-15T08:38:58.479Z,31
2019-03-15T08:40:00.793Z,28
2019-03-15T08:41:02.812Z,29
2019-03-15T08:42:04.867Z,36
2019-03-15T08:43:06.898Z,33
2019-03-15T08:44:08.926Z,36
2019-03-15T08:45:10.959Z,34
2019-03-15T08:46:13.286Z,37
2019-03-15T08:47:15.348Z,33
2019-03-15T08:48:17.448Z,34
2019-03-15T08:49:19.563Z,34
2019-03-15T08:50:25.978Z,37
2019-03-15T08:51:28.018Z,33
2019-03-15T08:52:30.072Z,25
2019-03-15T08:53:32.103Z,25
2019-03-15T08:54:34.243Z,27
2019-03-15T08:55:39.514Z,24
2019-03-15T08:56:41.853Z,25
2019-03-15T08:57:44.031Z,25
2019-03-15T08:58:46.088Z,25
2019-03-15T08:59:59.631Z,22
2019-03-15T09:01:01.775Z,23
2019-03-15T09:02:03.821Z,22
2019-03-15T09:03:05.842Z,21
2019-03-15T09:04:07.886Z,21
2019-03-15T09:05:09.923Z,25
2019-03-15T09:06:11.951Z,22
2019-03-15T09:07:13.986Z,24
2019-03-15T09:08:16.021Z,26
2019-03-15T09:09:18.352Z,32
2019-03-15T09:10:25.559Z,33
2019-03-15T09:11:27.644Z,30
2019-03-15T09:12:30.236Z,37
2019-03-15T09:13:32.266Z,41
2019-03-15T09:14:34.303Z,41
2019-03-15T09:15:36.453Z,43
2019-03-15T09:16:38.780Z,45
2019-03-15T09:17:40.818Z,41
2019-03-15T09:18:42.846Z,41
2019-03-15T09:19:44.902Z,41
2019-03-15T09:20:47.215Z,43
2019-03-15T09:21:49.252Z,48
2019-03-15T09:22:51.273Z,50
2019-03-15T09:23:53.323Z,48
2019-03-15T09:24:55.628Z,37
2019-03-15T09:25:57.950Z,36
2019-03-15T09:27:00.274Z,35
2019-03-15T09:28:02.296Z,34
2019-03-15T09:29:04.634Z,33
2019-03-15T09:30:06.669Z,43
2019-03-15T09:31:09.135Z,45
2019-03-15T09:32:11.170Z,42
2019-03-15T09:33:13.503Z,46
2019-03-15T09:34:15.814Z,53
2019-03-15T09:35:18.128Z,56
2019-03-15T09:36:20.186Z,68
2019-03-15T09:37:22.213Z,65
2019-03-15T09:38:24.307Z,60
2019-03-15T09:39:26.396Z,47
2019-03-15T09:40:28.440Z,41
2019-03-15T09:41:41.632Z,35
2019-03-15T09:42:43.676Z,34
2019-03-15T09:43:47.230Z,27
2019-03-15T09:44:49.274Z,31
2019-03-15T09:45:51.322Z,44
2019-03-15T09:46:53.647Z,44
2019-03-15T09:47:55.689Z,45
2019-03-15T09:49:01.056Z,38
2019-03-15T09:50:03.097Z,43
2019-03-15T09:51:05.134Z,48
2019-03-15T09:52:07.166Z,44
2019-03-15T09:53:09.221Z,47
2019-03-15T09:54:11.253Z,42
2019-03-15T09:55:13.317Z,44
2019-03-15T09:56:15.342Z,35
2019-03-15T09:57:17.419Z,59
2019-03-15T09:58:19.467Z,64
2019-03-15T09:59:21.788Z,57
2019-03-15T10:00:23.832Z,51
2019-03-15T10:01:36.732Z,41
2019-03-15T10:02:38.775Z,50
2019-03-15T10:03:40.810Z,51
2019-03-15T10:04:43.159Z,56
2019-03-15T10:05:45.183Z,59
2019-03-15T10:06:47.232Z,50
2019-03-15T10:07:49.681Z,46
2019-03-15T10:08:51.811Z,49
2019-03-15T10:09:53.861Z,43
2019-03-15T10:10:55.890Z,56
2019-03-15T10:11:57.976Z,66
2019-03-15T10:13:07.606Z,65
2019-03-15T10:14:09.642Z,67
2019-03-15T10:15:11.962Z,71
2019-03-15T10:16:13.995Z,69
2019-03-15T10:17:16.035Z,70
2019-03-15T10:18:18.352Z,73
2019-03-15T10:19:20.393Z,78
2019-03-15T10:20:22.824Z,77
2019-03-15T10:21:24.844Z,85
2019-03-15T10:22:26.891Z,99
2019-03-15T10:23:28.921Z,103
2019-03-15T10:24:30.953Z,98
2019-03-15T10:25:52.712Z,96
2019-03-15T10:26:54.735Z,102
2019-03-15T10:27:56.773Z,95
2019-03-15T10:28:58.870Z,86
2019-03-15T10:30:01.196Z,109
2019-03-15T10:31:03.218Z,106
2019-03-15T10:32:05.835Z,77
2019-03-15T10:33:07.886Z,67
2019-03-15T10:34:09.919Z,55
2019-03-15T10:35:12.255Z,58
2019-03-15T10:36:14.278Z,64
2019-03-15T10:37:16.315Z,68
2019-03-15T10:38:18.347Z,70
2019-03-15T10:39:20.391Z,63
2019-03-15T10:40:23.108Z,54
2019-03-15T10:41:25.137Z,56
2019-03-15T10:42:27.179Z,50
2019-03-15T10:43:29.528Z,47
2019-03-15T10:44:31.959Z,37
2019-03-15T10:45:34.381Z,34
2019-03-15T10:46:36.404Z,32
2019-03-15T10:47:41.944Z,41
2019-03-15T10:48:44.410Z,47
2019-03-15T10:49:46.463Z,66
2019-03-15T10:50:48.508Z,71
2019-03-15T10:51:50.540Z,91
2019-03-15T10:52:55.620Z,93
2019-03-15T10:53:57.663Z,90
2019-03-15T10:54:59.725Z,83
2019-03-15T10:56:02.027Z,94
2019-03-15T10:57:04.112Z,110
2019-03-15T10:58:06.144Z,120
2019-03-15T10:59:08.177Z,139
2019-03-15T11:00:10.230Z,140
2019-03-15T11:01:12.289Z,138
2019-03-15T11:02:14.323Z,126
2019-03-15T11:03:16.375Z,115
2019-03-15T11:04:18.413Z,99
2019-03-15T11:05:20.481Z,97
2019-03-15T11:06:22.517Z,98
2019-03-15T11:07:24.545Z,111
2019-03-15T11:08:27.078Z,116
2019-03-15T11:09:29.109Z,117
2019-03-15T11:10:31.156Z,102
2019-03-15T11:11:33.190Z,78
2019-03-15T11:12:35.241Z,72
2019-03-15T11:13:37.275Z,67
2019-03-15T11:14:39.312Z,66
2019-03-15T11:15:41.433Z,67
2019-03-15T11:16:43.466Z,65
2019-03-15T11:17:45.538Z,76
2019-03-15T11:18:47.612Z,75
2019-03-15T11:19:49.685Z,78
2019-03-15T11:20:52.835Z,87
2019-03-15T11:21:55.203Z,72
2019-03-15T11:22:57.254Z,67
2019-03-15T11:23:59.386Z,58
2019-03-15T11:25:01.864Z,47
2019-03-15T11:26:15.711Z,37
2019-03-15T11:27:18.042Z,36
2019-03-15T11:28:20.095Z,33
2019-03-15T11:29:22.819Z,31
2019-03-15T11:30:24.870Z,33
2019-03-15T11:31:26.913Z,34
2019-03-15T11:32:28.943Z,33
2019-03-15T11:33:31.068Z,41
2019-03-15T11:34:33.106Z,55
2019-03-15T11:35:35.146Z,65
2019-03-15T11:36:37.198Z,63
2019-03-15T11:37:39.919Z,56
2019-03-15T11:38:41.952Z,49
2019-03-15T11:39:44.369Z,39
2019-03-15T11:40:46.408Z,37
2019-03-15T11:41:48.455Z,31
2019-03-15T11:42:50.505Z,30
2019-03-15T11:43:52.536Z,33
2019-03-15T11:44:54.628Z,33
2019-03-15T11:45:56.653Z,31
2019-03-15T11:46:59.334Z,30
2019-03-15T11:48:09.474Z,27
2019-03-15T11:49:11.514Z,27
2019-03-15T11:50:13.601Z,28
2019-03-15T11:51:15.626Z,27
2019-03-15T11:52:17.669Z,27
2019-03-15T11:53:20.269Z,19
2019-03-15T11:54:22.323Z,23
2019-03-15T11:55:24.357Z,24
2019-03-15T11:56:28.558Z,27
2019-03-15T11:57:30.589Z,23
2019-03-15T11:58:32.638Z,23
2019-03-15T11:59:37.760Z,26
2019-03-15T12:00:39.802Z,28
2019-03-15T12:01:41.855Z,30
2019-03-15T12:02:43.911Z,32
2019-03-15T12:03:55.044Z,32
2019-03-15T12:04:57.082Z,33
2019-03-15T12:05:59.611Z,35
2019-03-15T12:07:01.918Z,41
2019-03-15T12:08:03.965Z,40
2019-03-15T12:09:06.339Z,44
2019-03-15T12:10:08.417Z,50
2019-03-15T12:11:10.463Z,51
2019-03-15T12:12:12.505Z,44
2019-03-15T12:13:14.636Z,40
2019-03-15T12:14:16.984Z,42
2019-03-15T12:15:19.059Z,46
2019-03-15T12:16:21.481Z,38
2019-03-15T12:17:23.802Z,31
2019-03-15T12:18:25.899Z,38
2019-03-15T12:19:28.359Z,37
2019-03-15T12:20:30.399Z,38
2019-03-15T12:21:32.436Z,39
2019-03-15T12:22:34.505Z,39
2019-03-15T12:23:36.546Z,45
2019-03-15T12:24:38.571Z,32
2019-03-15T12:25:40.619Z,30
2019-03-15T12:26:42.666Z,30
2019-03-15T12:27:45.056Z,28
2019-03-15T12:28:47.446Z,28
2019-03-15T12:29:49.542Z,21
2019-03-15T12:30:51.848Z,23
2019-03-15T12:31:53.886Z,17
2019-03-15T12:32:56.600Z,25
2019-03-15T12:33:58.635Z,22
2019-03-15T12:35:01.310Z,23
2019-03-15T12:36:05.154Z,16
2019-03-15T12:37:07.182Z,19
2019-03-15T12:38:09.215Z,16
2019-03-15T12:39:11.253Z,16
2019-03-15T12:40:13.268Z,16
2019-03-15T12:41:15.307Z,18
2019-03-15T12:42:17.346Z,19
2019-03-15T12:43:19.390Z,15
2019-03-15T12:44:21.975Z,18
2019-03-15T12:45:24.046Z,18
2019-03-15T12:46:26.076Z,17
2019-03-15T12:47:28.490Z,14
2019-03-15T12:48:30.530Z,16
2019-03-15T12:49:32.553Z,16
2019-03-15T12:50:34.931Z,15
2019-03-15T12:51:37.523Z,15
2019-03-15T12:52:50.001Z,17
2019-03-15T12:53:52.332Z,12
2019-03-15T12:54:54.397Z,10
2019-03-15T12:55:56.816Z,12
2019-03-15T12:56:58.835Z,14
2019-03-15T12:58:00.876Z,18
2019-03-15T12:59:02.913Z,15
2019-03-15T13:00:04.967Z,12
2019-03-15T13:01:06.995Z,14
2019-03-15T13:02:09.020Z,16
2019-03-15T13:03:11.067Z,17
2019-03-15T13:04:13.378Z,20
2019-03-15T13:05:15.798Z,15
2019-03-15T13:06:17.840Z,13
2019-03-15T13:07:19.871Z,16
2019-03-15T13:08:21.896Z,13
2019-03-15T13:09:23.942Z,16
2019-03-15T13:10:25.963Z,12
2019-03-15T13:11:27.996Z,12
2019-03-15T13:12:30.315Z,10
2019-03-15T13:13:32.334Z,8
2019-03-15T13:14:34.378Z,8
2019-03-15T13:15:36.419Z,11
2019-03-15T13:16:38.468Z,12
2019-03-15T13:17:40.483Z,10
2019-03-15T13:18:42.525Z,11
2019-03-15T13:19:56.750Z,17
2019-03-15T13:20:58.776Z,17
2019-03-15T13:22:00.820Z,14
2019-03-15T13:23:03.200Z,16
2019-03-15T13:24:05.250Z,15
2019-03-15T13:25:07.301Z,13
2019-03-15T13:26:09.349Z,13
2019-03-15T13:27:11.378Z,15
2019-03-15T13:28:13.412Z,14
2019-03-15T13:29:15.740Z,18
2019-03-15T13:30:17.821Z,21
2019-03-15T13:31:19.864Z,19
2019-03-15T13:32:21.912Z,17
2019-03-15T13:33:23.930Z,15
2019-03-15T13:34:25.974Z,18
2019-03-15T13:35:28.290Z,20
2019-03-15T13:36:30.322Z,18
2019-03-15T13:37:32.641Z,21
2019-03-15T13:38:35.070Z,23
2019-03-15T13:39:37.404Z,16
2019-03-15T13:40:39.454Z,18
2019-03-15T13:41:41.488Z,22
2019-03-15T13:42:43.836Z,17
2019-03-15T13:43:45.891Z,19
2019-03-15T13:44:47.918Z,23
2019-03-15T13:45:49.959Z,18
2019-03-15T13:46:52.255Z,16
2019-03-15T13:47:54.295Z,16
2019-03-15T13:48:56.714Z,16
2019-03-15T13:49:59.425Z,16
2019-03-15T13:51:01.453Z,15
2019-03-15T13:52:03.498Z,17
2019-03-15T13:53:05.560Z,18
2019-03-15T13:54:07.595Z,20
2019-03-15T13:55:09.646Z,14
2019-03-15T13:56:11.959Z,20
2019-03-15T13:57:22.945Z,21
2019-03-15T13:58:24.970Z,14
2019-03-15T13:59:27.030Z,13
2019-03-15T14:00:29.399Z,17
2019-03-15T14:01:31.434Z,15
2019-03-15T14:02:33.823Z,13
2019-03-15T14:03:35.853Z,13
2019-03-15T14:04:37.915Z,12
2019-03-15T14:05:39.944Z,16
2019-03-15T14:06:41.966Z,20
2019-03-15T14:07:43.998Z,14
2019-03-15T14:08:46.054Z,14
2019-03-15T14:09:48.178Z,16
2019-03-15T14:10:51.464Z,16
2019-03-15T14:11:53.505Z,18
2019-03-15T14:12:55.535Z,20
2019-03-15T14:13:58.238Z,22
2019-03-15T14:15:00.585Z,19
2019-03-15T14:16:03.106Z,27
2019-03-15T14:17:05.251Z,36
2019-03-15T14:18:07.289Z,46
2019-03-15T14:19:09.332Z,35
2019-03-15T14:20:11.384Z,27
2019-03-15T14:21:13.704Z,27
2019-03-15T14:22:15.755Z,40
2019-03-15T14:23:17.797Z,48
2019-03-15T14:24:23.406Z,60
2019-03-15T14:25:25.735Z,61
2019-03-15T14:26:28.047Z,58
2019-03-15T14:27:39.204Z,47
2019-03-15T14:28:41.233Z,45
2019-03-15T14:29:43.280Z,55
2019-03-15T14:30:45.378Z,53
2019-03-15T14:31:47.454Z,59
2019-03-15T14:32:49.479Z,46
2019-03-15T14:33:52.191Z,43
2019-03-15T14:34:54.231Z,27
2019-03-15T14:35:56.269Z,23
2019-03-15T14:36:59.293Z,25
2019-03-15T14:38:02.181Z,31
2019-03-15T14:39:04.942Z,33
2019-03-15T14:40:08.030Z,29
2019-03-15T14:41:11.096Z,32
2019-03-15T14:42:13.982Z,33
2019-03-15T14:43:17.739Z,38
2019-03-15T14:44:20.786Z,33
2019-03-15T14:45:24.205Z,35
2019-03-15T14:46:26.292Z,45
2019-03-15T14:47:28.327Z,55
2019-03-15T14:48:30.358Z,53
2019-03-15T14:49:32.431Z,54
2019-03-15T14:50:34.467Z,55
2019-03-15T14:51:36.500Z,55
2019-03-15T14:52:38.645Z,50
2019-03-15T14:53:40.705Z,45
2019-03-15T14:54:43.744Z,41
2019-03-15T14:55:45.795Z,40
2019-03-15T14:56:47.838Z,37
2019-03-15T14:57:54.975Z,34
2019-03-15T14:58:57.014Z,30
2019-03-15T14:59:59.045Z,33
2019-03-15T15:01:01.090Z,30
2019-03-15T15:02:03.112Z,32
2019-03-15T15:03:05.253Z,33
2019-03-15T15:04:07.674Z,35